Latest Coastal Weather Observations for Warrnambool

IDV60701

Issued at 1:31 am EST Monday 20 April 2015 (issued every 10 minutes, with the page automatically refreshed every 10 minutes)

About coastal observations | Map of coastal stations | Coastal observations for VIC | Marine services | Other Formats
Station Details ID: 090186 Name: WARRNAMBOOL AIRPORT NDB Lat: -38.29 Lon: 142.45 Height: 70.8 m
Data from the previous 72 hours. | See also: Recent months at Warrnambool
Date/Time
EST
Temp

°C
Wind Pressure Rain
since 9am
mm
Weather Cloud Vis
km
Sea
Height
m
Swell
Dir
 
Speed
knots
Gust
knots
hPa Trend Height
m
Period
s
Dir
20/01:30am 7.3 S 7 8 1036.8 - 0.0 - - 10 - - - -
20/01:00am 6.7 S 7 8 1036.8 - 0.0 - - 10 - - - -
20/12:30am 7.5 S 8 9 1036.9 - 0.0 - - 10 - - - -
20/12:00am 8.6 S 10 11 1036.9 - 0.0 - Mostly clear 10 - - - -
 
Date/Time
EST
Temp

°C
Wind Pressure Rain
since 9am
mm
Weather Cloud Vis
km
Sea
Height
m
Swell
Dir
 
Speed
knots
Gust
knots
hPa Trend Height
m
Period
s
Dir
19/11:30pm 8.0 S 9 11 1037.0 - 0.0 - - 10 - - - -
19/11:00pm 9.6 S 11 14 1037.1 - 0.0 - Partly cloudy 10 - - - -
19/10:30pm 8.6 S 10 12 1037.0 - 0.0 - Partly cloudy 10 - - - -
19/10:00pm 8.4 S 9 11 1036.9 - 0.0 - Partly cloudy 10 - - - -
19/09:30pm 9.3 S 10 13 1036.8 - 0.0 - Partly cloudy 10 - - - -
19/09:00pm 9.0 S 7 9 1036.6 - 0.0 - Mostly cloudy 10 - - - -
19/08:30pm 9.5 S 9 11 1036.3 - 0.0 - Partly cloudy 10 - - - -
19/08:00pm 10.0 S 11 13 1035.8 - 0.0 - - 10 - - - -
19/07:30pm 9.3 SSW 8 9 1035.5 - 0.0 - Partly cloudy 10 - - - -
19/07:00pm 10.0 SSW 11 14 1035.1 - 0.0 - Partly cloudy 10 - - - -
19/06:30pm 9.1 S 10 13 1034.6 - 0.0 - Partly cloudy 10 - - - -
19/06:00pm 10.6 S 13 16 1034.3 - 0.0 - Mostly cloudy 10 - - - -
19/05:30pm 11.3 S 13 15 1033.9 - 0.0 - Partly cloudy 10 - - - -
19/05:00pm 10.9 S 11 13 1033.7 - 0.0 - Partly cloudy 10 - - - -
19/04:30pm 12.4 S 18 23 1033.3 - 0.0 - Partly cloudy 10 - - - -
19/04:00pm 12.0 S 16 22 1033.1 - 0.0 - Partly cloudy 10 - - - -
19/03:30pm 13.5 S 17 22 1032.8 - 0.0 - Partly cloudy 10 - - - -
19/03:00pm 13.2 S 19 26 1032.5 - 0.0 - Cloudy 10 - - - -
19/02:30pm 12.4 S 18 24 1032.4 - 0.0 - Partly cloudy 10 - - - -
19/02:00pm 12.3 SSW 20 25 1032.1 - 0.0 - Partly cloudy 10 - - - -
19/01:30pm 13.3 S 21 28 1032.0 - 0.0 - Partly cloudy 10 - - - -
19/01:00pm 12.6 SSW 22 27 1031.8 - 0.0 - Partly cloudy 10 - - - -
19/12:30pm 12.8 S 20 26 1031.7 - 0.0 - Partly cloudy 10 - - - -
19/12:00pm 13.1 S 22 29 1031.5 - 0.0 - Mostly clear 10 - - - -
19/11:30am 13.4 S 21 27 1031.2 - 0.0 - - 10 - - - -
19/11:00am 13.0 S 19 24 1031.0 - 0.0 - Partly cloudy 10 - - - -
19/10:30am 11.0 SSW 21 28 1030.6 - 0.0 - Partly cloudy 10 - - - -
19/10:00am 12.3 S 21 26 1030.0 - 0.0 - Partly cloudy 10 - - - -
19/09:30am 11.6 S 20 25 1029.5 - 0.0 - Partly cloudy 10 - - - -
19/09:00am 11.8 SSW 21 26 1029.1 - 9.2 - Mostly clear 10 - - - -
19/08:30am 11.8 SSW 19 25 1028.5 - 9.2 - Partly cloudy 10 - - - -
19/08:00am 10.0 SSW 16 21 1027.7 - 9.2 - Partly cloudy 10 - - - -
19/07:30am 10.3 SSW 17 22 1026.8 - 9.2 - Partly cloudy 10 - - - -
19/07:00am 10.0 SSW 16 21 1026.2 - 9.2 - Partly cloudy 10 - - - -
19/06:30am 9.7 SSW 17 22 1025.6 - 9.2 - Partly cloudy 10 - - - -
19/06:00am 9.5 SSW 16 20 1025.0 - 9.2 Rain Partly cloudy 10 - - - -
19/05:30am 9.5 SSW 13 19 1024.4 - 9.2 - Partly cloudy 10 - - - -
19/05:00am 9.2 S 15 19 1024.0 - 8.8 - Partly cloudy 10 - - - -
19/04:30am 9.4 SSW 16 23 1023.6 - 8.4 - Partly cloudy 10 - - - -
19/04:00am 9.8 SSW 17 29 1022.9 - 8.4 - Partly cloudy 10 - - - -
19/03:58am 10.0 SSW 15 26 1022.8 - 8.4 - Partly cloudy 10 - - - -
19/03:30am 9.7 SSW 15 21 1022.4 - 8.4 - Partly cloudy 10 - - - -
19/03:00am 8.8 SSW 14 18 1022.1 - 8.4 - Partly cloudy 10 - - - -
19/02:35am 10.0 SSW 18 28 1021.9 - 8.4 - Partly cloudy 10 - - - -
19/02:30am 10.7 SW 15 22 1021.7 - 8.4 - Partly cloudy 10 - - - -
19/02:00am 9.9 SW 15 19 1021.4 - 8.4 - Partly cloudy 10 - - - -
19/01:30am 9.9 SSW 16 19 1021.2 - 8.4 - Partly cloudy 10 - - - -
19/01:00am 9.0 SW 17 21 1021.0 - 8.4 - Partly cloudy 10 - - - -
19/12:30am 9.1 WSW 16 26 1020.7 - 7.4 - Partly cloudy 7 - - - -
19/12:29am 9.1 WSW 15 26 1020.8 - 7.2 - Partly cloudy 8 - - - -
19/12:00am 9.9 SW 14 17 1020.3 - 5.8 Showers Mostly cloudy 10 - - - -
 
Date/Time
EST
Temp

°C
Wind Pressure Rain
since 9am
mm
Weather Cloud Vis
km
Sea
Height
m
Swell
Dir
 
Speed
knots
Gust
knots
hPa Trend Height
m
Period
s
Dir
18/11:45pm 10.2 SW 17 27 1020.2 - 5.8 - Partly cloudy 10 - - - -
18/11:30pm 10.7 SW 16 21 1019.9 - 5.8 - Partly cloudy 10 - - - -
18/11:00pm 10.6 SW 14 19 1019.6 - 5.8 - Partly cloudy 10 - - - -
18/10:30pm 9.2 SW 9 12 1019.3 - 5.8 - Partly cloudy 10 - - - -
18/10:01pm 11.7 SW 15 25 1019.1 - 5.2 - Partly cloudy 10 - - - -
18/10:00pm 11.7 SW 15 23 1019.0 - 5.2 - Partly cloudy 10 - - - -
18/09:30pm 11.4 SW 15 21 1018.3 - 5.2 - Partly cloudy 10 - - - -
18/09:00pm 11.1 SW 12 16 1017.8 - 5.2 - Cloudy 10 - - - -
18/08:30pm 11.1 WSW 15 18 1017.3 - 5.2 - Partly cloudy 10 - - - -
18/08:00pm 11.1 WSW 13 19 1016.8 - 5.2 - Partly cloudy 10 - - - -
18/07:30pm 11.8 WSW 13 18 1016.3 - 5.0 - Partly cloudy 10 - - - -
18/07:00pm 10.7 WSW 10 15 1015.7 - 5.0 - Partly cloudy - - - - -
18/06:30pm 11.2 WNW 9 13 1015.1 - 5.0 - Partly cloudy 10 - - - -
18/06:00pm 10.9 W 11 14 1014.7 - 5.0 Showers Mostly cloudy 10 - - - -
18/05:59pm 10.9 W 11 14 1014.7 - 5.0 - Partly cloudy 10 - - - -
18/05:55pm 10.9 W 10 14 1014.5 - 5.0 - Partly cloudy 10 - - - -
18/05:39pm 11.3 SW 6 8 1014.5 - 4.8 - Partly cloudy 4 - - - -
18/05:30pm 11.3 WSW 8 10 1014.3 - 4.4 - Partly cloudy 4 - - - -
18/05:20pm 11.2 W 9 12 1014.1 - 4.4 - Partly cloudy 5 - - - -
18/05:00pm 11.2 W 11 15 1013.8 - 4.2 - Partly cloudy 10 - - - -
18/04:30pm 11.5 WSW 16 23 1013.6 - 3.6 - Partly cloudy 8 - - - -
18/04:14pm 11.7 WSW 14 18 1013.2 - 3.0 - Partly cloudy 10 - - - -
18/04:12pm 11.7 WSW 15 19 1013.2 - 3.0 - Partly cloudy 10 - - - -
18/04:00pm 11.2 WSW 19 26 1013.2 - 3.0 - Partly cloudy 3 - - - -
18/03:51pm 11.6 SW 16 26 1013.1 - 3.0 - Partly cloudy 2 - - - -
18/03:30pm 11.9 SW 14 18 1012.6 - 1.8 - Partly cloudy 2 - - - -
18/03:00pm 12.0 SW 18 23 1012.2 - 1.4 Showers Cloudy 2 - - - -
18/02:34pm 12.5 SW 22 29 1011.8 - 0.6 - Partly cloudy 3 - - - -
18/02:30pm 12.6 WSW 21 35 1011.7 - 0.6 - Partly cloudy 4 - - - -
18/02:28pm 13.0 WSW 19 35 1011.6 - 0.4 - Partly cloudy 5 - - - -
18/02:25pm 14.5 W 17 35 1011.6 - 0.0 - Partly cloudy 10 - - - -
18/02:23pm 16.4 WNW 16 35 1011.3 - 0.0 - Partly cloudy 10 - - - -
18/02:22pm 17.5 WNW 15 25 1011.1 - 0.0 - Partly cloudy 10 - - - -
18/02:02pm 17.9 NW 21 31 1010.6 - 0.0 - Partly cloudy 10 - - - -
18/02:00pm 17.9 NW 23 31 1010.5 - 0.0 - Partly cloudy 10 - - - -
18/01:32pm 19.0 WNW 18 28 1010.5 - 0.0 - Partly cloudy 10 - - - -
18/01:30pm 19.1 WNW 17 25 1010.5 - 0.0 - Partly cloudy 10 - - - -
18/01:00pm 17.8 WNW 16 24 1011.1 - 0.0 - Partly cloudy 10 - - - -
18/12:30pm 18.2 NW 18 23 1011.5 - 0.0 - Partly cloudy 10 - - - -
18/12:07pm 17.2 NW 18 29 1012.0 - 0.0 - Cloudy 10 - - - -
18/12:00pm 17.7 NW 17 24 1012.0 - 0.0 - Mostly cloudy 10 - - - -
18/11:30am 18.7 NW 17 24 1011.9 - 0.0 - Partly cloudy 10 - - - -
18/11:00am 18.3 NNW 18 23 1012.2 - 0.0 - - 10 - - - -
18/10:30am 17.0 NNW 19 24 1012.6 - 0.0 - Partly cloudy 10 - - - -
18/10:00am 16.3 NNW 17 23 1012.8 - 0.0 - - 10 - - - -
18/09:30am 14.9 NW 20 25 1013.2 - 0.0 - - 10 - - - -
18/09:00am 13.9 NW 15 23 1013.5 - 0.0 - - 10 - - - -
18/08:30am 12.6 NNW 13 17 1013.5 - 0.0 - - 10 - - - -
18/08:00am 11.0 NNW 9 12 1013.5 - 0.0 - - 10 - - - -
18/07:30am 10.4 NNW 9 12 1013.3 - 0.0 - - 10 - - - -
18/07:00am 9.9 NNW 8 11 1013.1 - 0.0 - - 10 - - - -
18/06:30am 10.5 NNW 9 12 1013.0 - 0.0 - Partly cloudy - - - - -
18/06:00am 11.9 NNW 11 13 1012.8 - 0.0 - Cloudy - - - - -
18/05:30am 11.9 NNW 10 13 1012.7 - 0.0 - Cloudy - - - - -
18/05:00am 11.5 NW 9 11 1012.6 - 0.0 - Cloudy - - - - -
18/04:30am 11.7 NW 10 14 1012.5 - 0.0 - Partly cloudy - - - - -
18/04:00am 12.0 NW 10 12 1012.3 - 0.0 - Partly cloudy - - - - -
18/03:30am 11.8 NW 9 12 1012.4 - 0.0 - Cloudy 10 - - - -
18/03:00am 12.2 NW 9 11 1012.5 - 0.0 - Cloudy 10 - - - -
18/02:30am 12.0 NW 8 9 1012.9 - 0.0 - Cloudy 10 - - - -
18/02:00am 12.0 NW 6 8 1013.3 - 0.0 - Partly cloudy 10 - - - -
18/01:30am 12.1 NW 6 7 1013.5 - 0.0 - Partly cloudy 10 - - - -
18/01:00am 12.1 NNW 7 8 1013.7 - 0.0 - Partly cloudy 10 - - - -
18/12:30am 12.2 NNW 6 8 1013.9 - 0.0 - Partly cloudy 10 - - - -
18/12:00am 12.2 NW 7 8 1014.4 - 0.0 - Cloudy 10 - - - -
 
Date/Time
EST
Temp

°C
Wind Pressure Rain
since 9am
mm
Weather Cloud Vis
km
Sea
Height
m
Swell
Dir
 
Speed
knots
Gust
knots
hPa Trend Height
m
Period
s
Dir
17/11:30pm 11.9 NW 7 8 1014.6 - 0.0 - Cloudy 10 - - - -
17/11:00pm 12.4 WNW 5 7 1014.9 - 0.0 - Partly cloudy 10 - - - -
17/10:30pm 13.0 WNW 6 8 1015.4 - 0.0 - Partly cloudy 10 - - - -
17/10:00pm 12.9 W 5 7 1015.2 - 0.0 - Cloudy 10 - - - -
17/09:30pm 12.9 WNW 7 8 1015.4 - 0.0 - Cloudy 10 - - - -
17/09:00pm 12.9 W 5 6 1015.4 - 0.0 - Cloudy 10 - - - -
17/08:30pm 13.3 W 6 7 1015.6 - 0.0 - Cloudy 10 - - - -
17/08:00pm 12.9 W 4 5 1015.6 - 0.0 - Cloudy 10 - - - -
17/07:30pm 12.7 W 1 4 1015.7 - 0.0 - Cloudy 10 - - - -
17/07:00pm 13.0 WNW 1 3 1015.9 - 0.0 - Cloudy 10 - - - -
17/06:30pm 12.8 NW 3 6 1015.6 - 0.0 - Partly cloudy 10 - - - -
17/06:00pm 14.8 CALM 0 0 1015.4 - 0.0 - Cloudy 10 - - - -
17/05:30pm 15.4 NE 5 6 1015.5 - 0.0 - Partly cloudy 10 - - - -
17/05:00pm 15.7 N 5 6 1016.2 - 0.0 - Cloudy 10 - - - -
17/04:30pm 16.2 N 7 9 1016.2 - 0.0 - Cloudy 10 - - - -
17/04:00pm 16.2 N 7 11 1016.5 - 0.0 - Cloudy 10 - - - -
17/03:30pm 15.8 NNE 7 10 1016.6 - 0.0 - Cloudy 10 - - - -
17/03:00pm 15.6 NNE 8 10 1017.2 - 0.0 - Cloudy 10 - - - -
17/02:30pm 15.5 NE 8 11 1017.6 - 0.0 - - 10 - - - -
17/02:00pm 15.5 NE 7 9 1017.9 - 0.0 - - 10 - - - -
17/01:30pm 15.2 NNE 9 11 1018.6 - 0.0 - - 10 - - - -
17/01:00pm 15.2 NE 8 11 1019.5 - 0.0 - - 10 - - - -
17/12:30pm 15.2 NE 10 13 1020.1 - 0.0 - - 10 - - - -
17/12:00pm 15.0 NE 9 14 1020.7 - 0.0 - Mostly clear 10 - - - -
17/11:30am 14.8 NE 9 12 1021.3 - 0.0 - - 10 - - - -
17/11:00am 13.9 NE 9 13 1021.8 - 0.0 - - 10 - - - -
17/10:30am 13.2 NE 7 10 1022.5 - 0.0 - - 10 - - - -
17/10:00am 12.2 NNE 8 11 1023.0 - 0.0 - - 10 - - - -
17/09:30am 11.1 NE 7 8 1023.2 - 0.0 - - 10 - - - -
17/09:00am 9.9 NNE 5 6 1023.6 - 0.2 - - 10 - - - -
17/08:30am 8.1 NNE 4 5 1023.9 - 0.2 - - 10 - - - -
17/08:00am 6.5 N 6 6 1023.9 - 0.2 - - 10 - - - -
17/07:30am 5.5 N 5 6 1023.8 - 0.2 - - 10 - - - -
17/07:00am 5.0 N 5 5 1023.5 - 0.2 - - 10 - - - -
17/06:30am 5.2 NNE 5 6 1023.6 - 0.2 - - 10 - - - -
17/06:00am 5.0 NNE 5 6 1023.6 - 0.2 - Partly cloudy 10 - - - -
17/05:30am 5.3 N 5 5 1023.5 - 0.2 - - 10 - - - -
17/05:00am 6.2 N 4 5 1023.5 - 0.2 - - 10 - - - -
17/04:30am 6.6 N 4 5 1023.6 - 0.2 - - 10 - - - -
17/04:00am 6.6 N 5 5 1023.7 - 0.2 - - 10 - - - -
17/03:30am 6.8 N 5 6 1023.8 - 0.2 - - 10 - - - -
17/03:00am 6.9 N 5 6 1023.9 - 0.2 - Cloudy 10 - - - -
17/02:30am 6.5 N 5 6 1024.3 - 0.2 - - 10 - - - -
17/02:00am 6.5 N 4 5 1024.4 - 0.2 - - 10 - - - -

Other Formats:

Comma delimited format used in spreadsheet applications
http://www.bom.gov.au/fwo/IDV60701/IDV60701.94837.axf

JavaScript Object Notation format (JSON) in row-major order
http://www.bom.gov.au/fwo/IDV60701/IDV60701.94837.json